Highlandville, IA (52149)

9:12 AM CDT on September 30, 2014 (GMT -0500)
Decorah Municipal | Change Station
CLOSE
Current Station
Airport
Location: Decorah,
Elevation: 1158 ft
Nearby Weather Stations

Elev 1158 ft 43.28 °N, 91.74 °W | Updated 17 minutes ago

Overcast
Overcast
48 °F
Feels Like 48 °F
N
9
Wind Variable Wind from East

Today
High -- | Low -- °F
--% Chance of Precip.
Yesterday
High -- | Low -- °F
Precip. -- in
7:03 AM 6:50 PM
Waxing Crescent, 37% visible
Pressure 30.05 in
Visibility 9.0 miles
Clouds Overcast 600 ft
Dew Point 45 °F
Humidity 87%
Rainfall 0.00 in
Snow Depth Not available.
UV 0 out of 12
Pollen 2.70 out of 12
Air Quality Not available.
Flu Activity Not available.
METAR KDEH 301355Z AUTO 08008KT 9SM OVC006 09/07 A3005 RMK AO2

More Conditions Fewer Conditions

Pressure 30.05 in
Visibility 9.0 miles
Clouds Overcast 600 ft
Dew Point 45 °F
Humidity 87%
Rainfall 0.00 in
Snow Depth Not available.
UV 0 out of 12
Pollen 2.70 out of 12
Air Quality Not available.
Flu Activity Not available.
METAR KDEH 301355Z AUTO 08008KT 9SM OVC006 09/07 A3005 RMK AO2

More Conditions Fewer Conditions

10-Day Weather Forecast

Almanac

Astronomy

Sep. 30, 2014 Rise Set
Actual Time 7:03 AM CDT 6:50 PM CDT
Civil Twilight 6:35 AM CDT 7:18 PM CDT
Nautical Twilight 6:01 AM CDT 7:51 PM CDT
Astronomical Twilight 5:28 AM CDT 8:24 PM CDT
Moon 1:19 PM CDT 11:13 PM CDT
Length of Visible Light 12h 43m
Length of Day
11h 46m
Tomorrow will be 2m 56s shorter.
Waxing Crescent, 37% of the Moon is Illuminated
Today
Waxing Crescent
Oct 1
First Quarter
Oct 8
Full
Oct 15
Last Quarter
Oct 23
New

Today's Extremes

State Highs State Lows

Community

WunderPhotos

Upload Photos

1,757,643 photos uploaded!

Nearby

Snow Depth

Station Depth Elevation
No new snow has been reported.

Earthquake Activity

City Distance Mag. Time & Date
No recent earthquake activity has been reported nearby.
Minimum magnitude displayed is 2.5.

Coastal Water Temperatures

Place Temperature
No Stations Reporting

Nearby Weather Stations